SPSO

Capitán FAP Renán Elías Olivera International Airport

Pisco, Peru
SPSO 192300Z 2000/2024 23008KT CAVOK TX20/2019Z TN13/2010Z BECMG 2002/2004 VRB04KT 8000 FEW012 BECMG 2008/2010 5000 BR FEW010 BKN015 BECMG 2013/2015 30010KT 9999 SCT017 BECMG 2020/2022 22014KT CAVOK
Issued Valid From Valid To
Oct-19 @ 23:00 UTC
(3 hours ago)
Oct-20 @ 00:00 UTC
(2 hours ago)
Oct-21 @ 00:00 UTC
(in 22 hours)
Expired Click to View Oct-20 @ 00:00 to Oct-20 @ 02:00
SPSO 192300Z 2000/2024 23008KT CAVOK TX20/2019Z TN13/2010Z
Wind Visibility Clouds
230° at 8 knots 10,000+ meters
  • No significant clouds
Becoming Oct-20 @ 02:00 to Oct-20 @ 08:00
BECMG 2002/2004 VRB04KT 8000 FEW012
Wind Visibility Clouds
Variable at 4 knots 7,998 meters
  • Few at 1,200' AGL
Becoming Oct-20 @ 08:00 to Oct-20 @ 13:00
BECMG 2008/2010 5000 BR FEW010 BKN015
Wind Visibility Clouds Conditions
Variable at 4 knots 5,005 meters
  • Few at 1,000' AGL
  • Broken at 1,500' AGL
  • Mist
Becoming Oct-20 @ 13:00 to Oct-20 @ 20:00
BECMG 2013/2015 30010KT 9999 SCT017
Wind Visibility Clouds Conditions
300° at 10 knots 10,000+ meters
  • Scattered at 1,700' AGL
  • Mist
Becoming Oct-20 @ 20:00 to Oct-21 @ 00:00
BECMG 2020/2022 22014KT CAVOK
Wind Visibility Clouds Conditions
220° at 14 knots 10,000+ meters
  • No significant clouds
SPSO 192300Z 2000/2024 23008KT CAVOK TX20/2019Z TN13/2010Z BECMG 2002/2004 VRB04KT 8000 FEW012 BECMG 2008/2010 5000 BR FEW010 BKN015 BECMG 2013/2015 30010KT 9999 SCT017 BECMG 2020/2022 22014KT CAVOK
Issued Oct-19 @ 23:00 UTC
(3 hours ago)
Valid From Oct-20 @ 00:00 UTC
(2 hours ago)
Valid To Oct-21 @ 00:00 UTC
(in 22 hours)
Oct-20 @ 00:00 - Oct-20 @ 02:00
Wind Visibility
230° at 8 knots 10,000+ meters
Clouds
  • No significant clouds
Becoming Oct-20 @ 02:00 - Oct-20 @ 08:00
Wind Visibility
Variable at 4 knots 7,998 meters
Clouds
  • Few at 1,200' AGL
Becoming Oct-20 @ 08:00 - Oct-20 @ 13:00
Wind Visibility
Variable at 4 knots 5,005 meters
Clouds
  • Few at 1,000' AGL
  • Broken at 1,500' AGL
Conditions
  • Mist
Becoming Oct-20 @ 13:00 - Oct-20 @ 20:00
Wind Visibility
300° at 10 knots 10,000+ meters
Clouds
  • Scattered at 1,700' AGL
Conditions
  • Mist
Becoming Oct-20 @ 20:00 - Oct-21 @ 00:00
Wind Visibility
220° at 14 knots 10,000+ meters
Clouds
  • No significant clouds
Conditions